sensor_id;sensor_type;location;lat;lon;timestamp;pressure;altitude;pressure_sealevel;temperature;humidity
49194;BME280;35029;50.804;12.866;2023-04-07T00:00:24;97834.44;;;1.52;76.95
49194;BME280;35029;50.804;12.866;2023-04-07T00:02:52;97820.69;;;1.41;77.06
49194;BME280;35029;50.804;12.866;2023-04-07T00:05:18;97836.91;;;1.44;76.87
49194;BME280;35029;50.804;12.866;2023-04-07T00:07:44;97839.66;;;1.33;76.77
49194;BME280;35029;50.804;12.866;2023-04-07T00:10:10;97834.28;;;1.34;78.54
49194;BME280;35029;50.804;12.866;2023-04-07T00:12:35;97811.88;;;1.22;78.54
49194;BME280;35029;50.804;12.866;2023-04-07T00:15:02;97764.69;;;0.94;77.45
49194;BME280;35029;50.804;12.866;2023-04-07T00:17:29;97829.06;;;1.44;77.87
49194;BME280;35029;50.804;12.866;2023-04-07T00:19:55;97822.63;;;1.39;77.43
49194;BME280;35029;50.804;12.866;2023-04-07T00:22:20;97819.19;;;1.48;78.16
49194;BME280;35029;50.804;12.866;2023-04-07T00:24:46;97818.25;;;1.49;77.17
49194;BME280;35029;50.804;12.866;2023-04-07T00:27:17;97813.53;;;1.33;76.99
49194;BME280;35029;50.804;12.866;2023-04-07T00:29:43;97818.47;;;1.26;77.62
49194;BME280;35029;50.804;12.866;2023-04-07T00:32:13;97803.88;;;1.14;78.35
49194;BME280;35029;50.804;12.866;2023-04-07T00:34:38;97823.41;;;1.29;77.75
49194;BME280;35029;50.804;12.866;2023-04-07T00:37:04;97823.41;;;1.20;77.79
49194;BME280;35029;50.804;12.866;2023-04-07T00:39:31;97823.69;;;1.16;77.93
49194;BME280;35029;50.804;12.866;2023-04-07T00:41:57;97810.47;;;1.08;78.49
49194;BME280;35029;50.804;12.866;2023-04-07T00:44:23;97813.06;;;1.08;78.59
49194;BME280;35029;50.804;12.866;2023-04-07T00:46:49;97812.38;;;1.06;78.56
49194;BME280;35029;50.804;12.866;2023-04-07T00:49:15;97811.81;;;1.03;79.21
49194;BME280;35029;50.804;12.866;2023-04-07T00:51:42;97814.81;;;0.98;78.92
49194;BME280;35029;50.804;12.866;2023-04-07T00:54:09;97803.84;;;0.94;79.89
49194;BME280;35029;50.804;12.866;2023-04-07T00:56:35;97775.03;;;0.75;79.64
49194;BME280;35029;50.804;12.866;2023-04-07T00:59:03;97807.66;;;0.90;79.23
49194;BME280;35029;50.804;12.866;2023-04-07T01:01:34;97799.69;;;0.92;79.79
49194;BME280;35029;50.804;12.866;2023-04-07T01:04:11;97798.44;;;0.86;78.27
49194;BME280;35029;50.804;12.866;2023-04-07T01:06:47;97791.94;;;0.80;79.73
49194;BME280;35029;50.804;12.866;2023-04-07T01:09:24;97787.00;;;0.77;78.92
49194;BME280;35029;50.804;12.866;2023-04-07T01:12:06;97794.97;;;0.76;80.41
49194;BME280;35029;50.804;12.866;2023-04-07T01:14:41;97790.84;;;0.73;79.35
49194;BME280;35029;50.804;12.866;2023-04-07T01:17:42;97787.56;;;0.71;79.04
49194;BME280;35029;50.804;12.866;2023-04-07T01:20:16;97771.56;;;0.55;80.09
49194;BME280;35029;50.804;12.866;2023-04-07T01:22:55;97789.19;;;0.72;79.41
49194;BME280;35029;50.804;12.866;2023-04-07T01:30:31;97774.03;;;0.56;79.39
49194;BME280;35029;50.804;12.866;2023-04-07T01:32:59;97766.63;;;0.61;78.87
49194;BME280;35029;50.804;12.866;2023-04-07T01:35:27;97745.69;;;0.42;79.33
49194;BME280;35029;50.804;12.866;2023-04-07T01:37:54;97767.16;;;0.55;79.10
49194;BME280;35029;50.804;12.866;2023-04-07T01:40:23;97774.16;;;0.55;80.32
49194;BME280;35029;50.804;12.866;2023-04-07T01:42:50;97748.56;;;0.39;79.80
49194;BME280;35029;50.804;12.866;2023-04-07T01:45:17;97719.53;;;0.22;79.53
49194;BME280;35029;50.804;12.866;2023-04-07T01:47:43;97745.69;;;0.42;79.79
49194;BME280;35029;50.804;12.866;2023-04-07T01:50:10;97758.41;;;0.35;80.23
49194;BME280;35029;50.804;12.866;2023-04-07T01:52:37;97751.38;;;0.26;80.47
49194;BME280;35029;50.804;12.866;2023-04-07T01:55:05;97769.28;;;0.40;80.23
49194;BME280;35029;50.804;12.866;2023-04-07T01:57:35;97757.97;;;0.30;80.60
49194;BME280;35029;50.804;12.866;2023-04-07T02:00:08;97744.66;;;0.23;80.36
49194;BME280;35029;50.804;12.866;2023-04-07T02:02:48;97772.34;;;0.45;81.20
49194;BME280;35029;50.804;12.866;2023-04-07T02:05:18;97769.72;;;0.45;80.81
49194;BME280;35029;50.804;12.866;2023-04-07T02:07:51;97754.31;;;0.42;80.36
49194;BME280;35029;50.804;12.866;2023-04-07T02:10:22;97760.66;;;0.40;80.24
49194;BME280;35029;50.804;12.866;2023-04-07T02:12:51;97765.88;;;0.40;80.20
49194;BME280;35029;50.804;12.866;2023-04-07T02:15:18;97760.75;;;0.38;81.18
49194;BME280;35029;50.804;12.866;2023-04-07T02:17:47;97759.78;;;0.29;80.54
49194;BME280;35029;50.804;12.866;2023-04-07T02:20:15;97762.06;;;0.23;80.55
49194;BME280;35029;50.804;12.866;2023-04-07T02:22:41;97729.13;;;-0.09;80.95
49194;BME280;35029;50.804;12.866;2023-04-07T02:27:49;97719.78;;;-0.12;82.30
49194;BME280;35029;50.804;12.866;2023-04-07T02:30:15;97750.50;;;0.15;81.93
49194;BME280;35029;50.804;12.866;2023-04-07T02:32:40;97753.75;;;0.29;82.17
49194;BME280;35029;50.804;12.866;2023-04-07T02:35:06;97751.00;;;0.30;81.11
49194;BME280;35029;50.804;12.866;2023-04-07T02:37:34;97736.13;;;0.21;81.07
49194;BME280;35029;50.804;12.866;2023-04-07T02:40:00;97748.91;;;0.24;80.68
49194;BME280;35029;50.804;12.866;2023-04-07T02:42:26;97751.63;;;0.23;81.54
49194;BME280;35029;50.804;12.866;2023-04-07T02:44:51;97758.78;;;0.21;83.11
49194;BME280;35029;50.804;12.866;2023-04-07T02:47:17;97755.59;;;0.17;82.75
49194;BME280;35029;50.804;12.866;2023-04-07T02:49:42;97753.00;;;0.17;82.73
49194;BME280;35029;50.804;12.866;2023-04-07T02:52:08;97747.13;;;0.25;82.80
49194;BME280;35029;50.804;12.866;2023-04-07T02:54:34;97754.97;;;0.25;82.34
49194;BME280;35029;50.804;12.866;2023-04-07T02:56:59;97753.75;;;0.29;82.63
49194;BME280;35029;50.804;12.866;2023-04-07T02:59:26;97752.13;;;0.38;83.19
49194;BME280;35029;50.804;12.866;2023-04-07T03:01:51;97744.25;;;0.28;83.40
49194;BME280;35029;50.804;12.866;2023-04-07T03:04:18;97744.88;;;0.41;82.62
49194;BME280;35029;50.804;12.866;2023-04-07T03:06:43;97748.16;;;0.43;83.18
49194;BME280;35029;50.804;12.866;2023-04-07T03:09:13;97745.69;;;0.42;83.26
49194;BME280;35029;50.804;12.866;2023-04-07T03:11:38;97741.38;;;0.31;83.20
49194;BME280;35029;50.804;12.866;2023-04-07T03:14:06;97735.31;;;0.21;83.68
49194;BME280;35029;50.804;12.866;2023-04-07T03:16:34;97729.66;;;0.15;84.35
49194;BME280;35029;50.804;12.866;2023-04-07T03:19:07;97723.38;;;0.18;84.62
49194;BME280;35029;50.804;12.866;2023-04-07T03:21:37;97738.50;;;0.34;84.03
49194;BME280;35029;50.804;12.866;2023-04-07T03:24:04;97739.19;;;0.26;84.30
49194;BME280;35029;50.804;12.866;2023-04-07T03:26:30;97731.91;;;0.30;84.65
49194;BME280;35029;50.804;12.866;2023-04-07T03:28:55;97729.44;;;0.28;84.88
49194;BME280;35029;50.804;12.866;2023-04-07T03:31:22;97731.81;;;0.10;85.04
49194;BME280;35029;50.804;12.866;2023-04-07T03:33:50;97739.56;;;0.22;84.69
49194;BME280;35029;50.804;12.866;2023-04-07T03:36:16;97726.41;;;0.23;85.30
49194;BME280;35029;50.804;12.866;2023-04-07T03:38:48;97736.31;;;0.29;84.97
49194;BME280;35029;50.804;12.866;2023-04-07T03:41:16;97733.25;;;0.24;84.73
49194;BME280;35029;50.804;12.866;2023-04-07T03:43:41;97731.88;;;0.20;84.79
49194;BME280;35029;50.804;12.866;2023-04-07T03:46:08;97736.94;;;0.22;85.15
49194;BME280;35029;50.804;12.866;2023-04-07T03:48:34;97728.00;;;0.14;84.29
49194;BME280;35029;50.804;12.866;2023-04-07T03:51:04;97733.47;;;0.11;84.18
49194;BME280;35029;50.804;12.866;2023-04-07T03:53:31;97726.38;;;-0.08;84.83
49194;BME280;35029;50.804;12.866;2023-04-07T03:55:58;97735.63;;;0.06;85.33
49194;BME280;35029;50.804;12.866;2023-04-07T03:58:39;97734.66;;;-0.03;84.86
49194;BME280;35029;50.804;12.866;2023-04-07T04:01:10;97732.03;;;-0.03;84.58
49194;BME280;35029;50.804;12.866;2023-04-07T04:03:37;97729.03;;;0.02;85.36
49194;BME280;35029;50.804;12.866;2023-04-07T04:06:20;97686.63;;;-0.31;83.42
49194;BME280;35029;50.804;12.866;2023-04-07T04:08:46;97726.50;;;-0.09;83.39
49194;BME280;35029;50.804;12.866;2023-04-07T04:11:12;97724.41;;;-0.15;84.12
49194;BME280;35029;50.804;12.866;2023-04-07T04:13:45;97727.63;;;-0.23;84.27
49194;BME280;35029;50.804;12.866;2023-04-07T04:16:11;97732.44;;;-0.28;84.18
49194;BME280;35029;50.804;12.866;2023-04-07T04:18:38;97727.34;;;-0.30;84.56
49194;BME280;35029;50.804;12.866;2023-04-07T04:21:05;97729.75;;;-0.38;84.62
49194;BME280;35029;50.804;12.866;2023-04-07T04:23:31;97734.84;;;-0.37;84.69
49194;BME280;35029;50.804;12.866;2023-04-07T04:25:57;97737.56;;;-0.38;84.72
49194;BME280;35029;50.804;12.866;2023-04-07T04:28:25;97738.00;;;-0.33;84.94
49194;BME280;35029;50.804;12.866;2023-04-07T04:30:52;97739.06;;;-0.36;83.55
49194;BME280;35029;50.804;12.866;2023-04-07T04:33:19;97726.56;;;-0.42;82.68
49194;BME280;35029;50.804;12.866;2023-04-07T04:35:53;97709.97;;;-0.62;83.96
49194;BME280;35029;50.804;12.866;2023-04-07T04:38:19;97713.16;;;-0.58;83.98
49194;BME280;35029;50.804;12.866;2023-04-07T04:41:11;97736.66;;;-0.48;84.30
49194;BME280;35029;50.804;12.866;2023-04-07T04:43:37;97730.66;;;-0.49;83.98
49194;BME280;35029;50.804;12.866;2023-04-07T04:46:04;97738.06;;;-0.44;83.57
49194;BME280;35029;50.804;12.866;2023-04-07T04:48:34;97746.00;;;-0.46;83.99
49194;BME280;35029;50.804;12.866;2023-04-07T04:51:03;97698.88;;;-0.64;82.98
49194;BME280;35029;50.804;12.866;2023-04-07T04:53:29;97743.00;;;-0.41;83.13
49194;BME280;35029;50.804;12.866;2023-04-07T04:55:59;97739.72;;;-0.43;83.61
49194;BME280;35029;50.804;12.866;2023-04-07T04:58:34;97742.69;;;-0.48;83.31
49194;BME280;35029;50.804;12.866;2023-04-07T05:01:00;97737.34;;;-0.46;83.04
49194;BME280;35029;50.804;12.866;2023-04-07T05:03:34;97744.94;;;-0.43;83.91
49194;BME280;35029;50.804;12.866;2023-04-07T05:06:03;97758.91;;;-0.44;83.79
49194;BME280;35029;50.804;12.866;2023-04-07T05:08:29;97754.63;;;-0.45;84.11
49194;BME280;35029;50.804;12.866;2023-04-07T05:10:56;97739.75;;;-0.55;83.98
49194;BME280;35029;50.804;12.866;2023-04-07T05:13:25;97752.03;;;-0.45;84.71
49194;BME280;35029;50.804;12.866;2023-04-07T05:15:51;97753.22;;;-0.38;84.36
49194;BME280;35029;50.804;12.866;2023-04-07T05:18:17;97747.72;;;-0.35;84.89
49194;BME280;35029;50.804;12.866;2023-04-07T05:20:44;97754.66;;;-0.24;84.17
49194;BME280;35029;50.804;12.866;2023-04-07T05:23:11;97752.53;;;-0.19;83.62
49194;BME280;35029;50.804;12.866;2023-04-07T05:25:36;97752.63;;;-0.21;84.34
49194;BME280;35029;50.804;12.866;2023-04-07T05:28:04;97750.19;;;-0.12;84.15
49194;BME280;35029;50.804;12.866;2023-04-07T05:30:30;97744.56;;;-0.18;83.06
49194;BME280;35029;50.804;12.866;2023-04-07T05:32:55;97748.63;;;-0.25;84.65
49194;BME280;35029;50.804;12.866;2023-04-07T05:35:38;97743.78;;;-0.29;85.44
49194;BME280;35029;50.804;12.866;2023-04-07T05:38:04;97752.19;;;-0.26;85.26
49194;BME280;35029;50.804;12.866;2023-04-07T05:40:30;97752.63;;;-0.21;85.30
49194;BME280;35029;50.804;12.866;2023-04-07T05:42:59;97747.34;;;-0.30;85.16
49194;BME280;35029;50.804;12.866;2023-04-07T05:45:27;97749.00;;;-0.08;85.18
49194;BME280;35029;50.804;12.866;2023-04-07T05:47:53;97719.19;;;-0.15;84.42
49194;BME280;35029;50.804;12.866;2023-04-07T05:50:25;97750.16;;;-0.01;84.64
49194;BME280;35029;50.804;12.866;2023-04-07T05:52:51;97752.63;;;0.01;85.56
49194;BME280;35029;50.804;12.866;2023-04-07T05:55:22;97744.09;;;0.20;85.92
49194;BME280;35029;50.804;12.866;2023-04-07T05:57:49;97742.16;;;0.22;85.21
49194;BME280;35029;50.804;12.866;2023-04-07T06:00:18;97735.22;;;0.32;85.26
49194;BME280;35029;50.804;12.866;2023-04-07T06:02:50;97743.78;;;0.44;84.89
49194;BME280;35029;50.804;12.866;2023-04-07T06:05:18;97750.56;;;0.56;84.67
49194;BME280;35029;50.804;12.866;2023-04-07T06:07:45;97750.16;;;0.61;84.18
49194;BME280;35029;50.804;12.866;2023-04-07T06:10:12;97736.44;;;0.59;85.24
49194;BME280;35029;50.804;12.866;2023-04-07T06:12:37;97756.81;;;0.84;86.70
49194;BME280;35029;50.804;12.866;2023-04-07T06:15:03;97736.66;;;1.06;85.60
49194;BME280;35029;50.804;12.866;2023-04-07T06:17:29;97703.81;;;0.94;84.66
49194;BME280;35029;50.804;12.866;2023-04-07T06:19:54;97728.59;;;1.29;85.39
49194;BME280;35029;50.804;12.866;2023-04-07T06:22:20;97738.75;;;1.61;84.03
49194;BME280;35029;50.804;12.866;2023-04-07T06:24:45;97737.22;;;1.78;82.63
49194;BME280;35029;50.804;12.866;2023-04-07T06:27:11;97731.28;;;1.86;81.41
49194;BME280;35029;50.804;12.866;2023-04-07T06:29:38;97732.50;;;2.01;79.69
49194;BME280;35029;50.804;12.866;2023-04-07T06:32:04;97732.88;;;2.16;79.00
49194;BME280;35029;50.804;12.866;2023-04-07T06:34:31;97733.38;;;2.30;78.15
49194;BME280;35029;50.804;12.866;2023-04-07T06:36:56;97735.81;;;2.41;77.72
49194;BME280;35029;50.804;12.866;2023-04-07T06:39:22;97734.38;;;2.57;76.77
49194;BME280;35029;50.804;12.866;2023-04-07T06:41:47;97744.25;;;2.63;74.74
49194;BME280;35029;50.804;12.866;2023-04-07T06:44:14;97738.38;;;2.61;75.03
49194;BME280;35029;50.804;12.866;2023-04-07T06:46:39;97735.06;;;2.59;75.09
49194;BME280;35029;50.804;12.866;2023-04-07T06:49:06;97738.38;;;2.61;76.48
49194;BME280;35029;50.804;12.866;2023-04-07T06:51:32;97743.00;;;2.67;77.27
49194;BME280;35029;50.804;12.866;2023-04-07T06:53:57;97744.09;;;2.74;77.32
49194;BME280;35029;50.804;12.866;2023-04-07T06:56:23;97741.97;;;2.78;78.04
49194;BME280;35029;50.804;12.866;2023-04-07T06:58:48;97739.50;;;2.76;77.36
49194;BME280;35029;50.804;12.866;2023-04-07T07:01:15;97705.06;;;2.53;76.86
49194;BME280;35029;50.804;12.866;2023-04-07T07:03:40;97702.88;;;2.48;77.61
49194;BME280;35029;50.804;12.866;2023-04-07T07:06:06;97748.72;;;2.80;77.78
49194;BME280;35029;50.804;12.866;2023-04-07T07:08:32;97742.22;;;2.84;77.40
49194;BME280;35029;50.804;12.866;2023-04-07T07:10:57;97744.78;;;2.94;78.56
49194;BME280;35029;50.804;12.866;2023-04-07T07:13:24;97747.78;;;2.99;77.51
49194;BME280;35029;50.804;12.866;2023-04-07T07:15:51;97755.19;;;3.04;75.92
49194;BME280;35029;50.804;12.866;2023-04-07T07:18:17;97751.44;;;3.16;76.20
49194;BME280;35029;50.804;12.866;2023-04-07T07:20:43;97746.28;;;3.25;74.62
49194;BME280;35029;50.804;12.866;2023-04-07T07:23:08;97756.91;;;3.41;72.35
49194;BME280;35029;50.804;12.866;2023-04-07T07:25:34;97741.31;;;3.58;72.74
49194;BME280;35029;50.804;12.866;2023-04-07T07:28:00;97759.50;;;3.77;69.99
49194;BME280;35029;50.804;12.866;2023-04-07T07:30:26;97755.22;;;3.94;67.73
49194;BME280;35029;50.804;12.866;2023-04-07T07:32:52;97753.63;;;4.01;66.79
49194;BME280;35029;50.804;12.866;2023-04-07T07:35:19;97748.91;;;4.05;65.39
49194;BME280;35029;50.804;12.866;2023-04-07T07:37:45;97734.72;;;3.98;65.21
49194;BME280;35029;50.804;12.866;2023-04-07T07:40:10;97744.47;;;4.05;64.08
49194;BME280;35029;50.804;12.866;2023-04-07T07:42:37;97762.47;;;4.27;64.56
49194;BME280;35029;50.804;12.866;2023-04-07T07:45:03;97759.38;;;4.31;64.23
49194;BME280;35029;50.804;12.866;2023-04-07T07:47:29;97759.44;;;4.39;64.20
49194;BME280;35029;50.804;12.866;2023-04-07T07:49:54;97764.03;;;4.46;64.32
49194;BME280;35029;50.804;12.866;2023-04-07T07:52:20;97758.03;;;4.53;62.93
49194;BME280;35029;50.804;12.866;2023-04-07T07:54:49;97759.88;;;4.61;63.41
49194;BME280;35029;50.804;12.866;2023-04-07T07:57:15;97762.69;;;4.68;63.54
49194;BME280;35029;50.804;12.866;2023-04-07T07:59:41;97767.66;;;4.79;62.27
49194;BME280;35029;50.804;12.866;2023-04-07T08:02:07;97778.19;;;4.87;63.12
49194;BME280;35029;50.804;12.866;2023-04-07T08:04:35;97766.59;;;4.98;62.59
49194;BME280;35029;50.804;12.866;2023-04-07T08:07:01;97753.31;;;5.08;63.48
49194;BME280;35029;50.804;12.866;2023-04-07T08:09:26;97765.19;;;5.29;62.32
49194;BME280;35029;50.804;12.866;2023-04-07T08:11:52;97782.47;;;5.56;61.83
49194;BME280;35029;50.804;12.866;2023-04-07T08:14:18;97783.34;;;5.65;57.88
49194;BME280;35029;50.804;12.866;2023-04-07T08:16:44;97780.03;;;5.79;59.11
49194;BME280;35029;50.804;12.866;2023-04-07T08:19:10;97781.19;;;5.93;58.27
49194;BME280;35029;50.804;12.866;2023-04-07T08:21:36;97779.09;;;6.05;57.94
49194;BME280;35029;50.804;12.866;2023-04-07T08:24:02;97773.63;;;6.23;58.54
49194;BME280;35029;50.804;12.866;2023-04-07T08:26:27;97759.50;;;6.24;57.75
49194;BME280;35029;50.804;12.866;2023-04-07T08:28:53;97782.31;;;6.48;57.18
49194;BME280;35029;50.804;12.866;2023-04-07T08:31:20;97784.59;;;6.59;57.80
49194;BME280;35029;50.804;12.866;2023-04-07T08:33:46;97775.50;;;6.70;57.02
49194;BME280;35029;50.804;12.866;2023-04-07T08:36:11;97765.50;;;6.66;56.01
49194;BME280;35029;50.804;12.866;2023-04-07T08:38:37;97770.38;;;6.77;53.31
49194;BME280;35029;50.804;12.866;2023-04-07T08:41:16;97772.66;;;6.80;54.57
49194;BME280;35029;50.804;12.866;2023-04-07T08:43:43;97764.41;;;6.91;54.44
49194;BME280;35029;50.804;12.866;2023-04-07T08:46:11;97782.78;;;7.08;54.62
49194;BME280;35029;50.804;12.866;2023-04-07T08:48:38;97751.38;;;6.98;52.39
49194;BME280;35029;50.804;12.866;2023-04-07T08:51:05;97769.66;;;7.31;52.21
49194;BME280;35029;50.804;12.866;2023-04-07T08:53:42;97768.75;;;7.39;50.34
49194;BME280;35029;50.804;12.866;2023-04-07T08:56:10;97757.34;;;7.47;50.75
49194;BME280;35029;50.804;12.866;2023-04-07T08:58:37;97775.56;;;7.56;49.53
49194;BME280;35029;50.804;12.866;2023-04-07T09:01:04;97775.19;;;7.68;49.35
49194;BME280;35029;50.804;12.866;2023-04-07T09:03:33;97778.22;;;7.79;49.42
49194;BME280;35029;50.804;12.866;2023-04-07T09:06:01;97783.91;;;7.91;49.32
49194;BME280;35029;50.804;12.866;2023-04-07T09:08:27;97771.13;;;8.03;50.38
49194;BME280;35029;50.804;12.866;2023-04-07T09:10:53;97774.78;;;8.17;48.92
49194;BME280;35029;50.804;12.866;2023-04-07T09:13:20;97774.69;;;8.25;48.89
49194;BME280;35029;50.804;12.866;2023-04-07T09:15:46;97754.84;;;8.29;46.77
49194;BME280;35029;50.804;12.866;2023-04-07T09:18:12;97775.56;;;8.56;47.27
49194;BME280;35029;50.804;12.866;2023-04-07T09:23:31;97772.22;;;8.77;44.03
49194;BME280;35029;50.804;12.866;2023-04-07T09:25:58;97771.03;;;8.79;43.63
49194;BME280;35029;50.804;12.866;2023-04-07T09:28:25;97752.34;;;8.81;45.27
49194;BME280;35029;50.804;12.866;2023-04-07T09:31:02;97725.75;;;8.68;44.19
49194;BME280;35029;50.804;12.866;2023-04-07T09:33:28;97771.94;;;9.02;40.97
49194;BME280;35029;50.804;12.866;2023-04-07T09:35:54;97765.59;;;9.33;41.75
49194;BME280;35029;50.804;12.866;2023-04-07T09:38:21;97760.47;;;9.53;42.86
49194;BME280;35029;50.804;12.866;2023-04-07T09:40:47;97734.06;;;9.38;42.00
49194;BME280;35029;50.804;12.866;2023-04-07T09:43:15;97760.13;;;9.56;39.42
49194;BME280;35029;50.804;12.866;2023-04-07T09:45:41;97747.97;;;9.61;41.69
49194;BME280;35029;50.804;12.866;2023-04-07T09:48:20;97739.06;;;9.47;39.06
49194;BME280;35029;50.804;12.866;2023-04-07T09:50:47;97752.59;;;9.59;41.08
49194;BME280;35029;50.804;12.866;2023-04-07T09:53:16;97727.28;;;9.50;42.74
49194;BME280;35029;50.804;12.866;2023-04-07T09:55:44;97749.63;;;9.69;41.72
49194;BME280;35029;50.804;12.866;2023-04-07T09:58:12;97742.34;;;9.71;42.74
49194;BME280;35029;50.804;12.866;2023-04-07T10:00:40;97752.59;;;9.81;42.93
49194;BME280;35029;50.804;12.866;2023-04-07T10:03:06;97749.63;;;9.91;41.90
49194;BME280;35029;50.804;12.866;2023-04-07T10:05:33;97731.75;;;9.93;40.65
49194;BME280;35029;50.804;12.866;2023-04-07T10:08:00;97757.31;;;9.86;38.41
49194;BME280;35029;50.804;12.866;2023-04-07T10:10:27;97720.03;;;9.59;36.63
49194;BME280;35029;50.804;12.866;2023-04-07T10:12:55;97739.53;;;10.01;37.63
49194;BME280;35029;50.804;12.866;2023-04-07T10:15:21;97746.59;;;10.44;39.26
49194;BME280;35029;50.804;12.866;2023-04-07T10:17:48;97741.84;;;10.68;38.28
49194;BME280;35029;50.804;12.866;2023-04-07T10:20:17;97732.28;;;10.73;34.63
49194;BME280;35029;50.804;12.866;2023-04-07T10:22:47;97737.03;;;10.49;34.77
49194;BME280;35029;50.804;12.866;2023-04-07T10:25:16;97740.31;;;10.52;38.65
49194;BME280;35029;50.804;12.866;2023-04-07T10:27:47;97732.94;;;10.40;39.08
49194;BME280;35029;50.804;12.866;2023-04-07T10:30:24;97734.34;;;10.43;38.29
49194;BME280;35029;50.804;12.866;2023-04-07T10:32:51;97690.94;;;10.15;38.07
49194;BME280;35029;50.804;12.866;2023-04-07T10:35:18;97737.91;;;10.28;36.12
49194;BME280;35029;50.804;12.866;2023-04-07T10:38:23;97736.84;;;10.23;34.81
49194;BME280;35029;50.804;12.866;2023-04-07T10:40:50;97726.22;;;10.16;36.81
49194;BME280;35029;50.804;12.866;2023-04-07T10:43:36;97733.38;;;10.22;36.32
49194;BME280;35029;50.804;12.866;2023-04-07T10:46:03;97724.81;;;10.20;37.24
49194;BME280;35029;50.804;12.866;2023-04-07T10:48:28;97711.16;;;10.23;37.18
49194;BME280;35029;50.804;12.866;2023-04-07T10:53:32;97710.47;;;10.36;39.09
49194;BME280;35029;50.804;12.866;2023-04-07T10:55:59;97722.59;;;10.52;38.44
49194;BME280;35029;50.804;12.866;2023-04-07T10:58:28;97735.59;;;10.47;35.89
49194;BME280;35029;50.804;12.866;2023-04-07T11:03:37;97705.47;;;10.26;36.21
49194;BME280;35029;50.804;12.866;2023-04-07T11:06:03;97728.94;;;10.58;37.19
49194;BME280;35029;50.804;12.866;2023-04-07T11:08:34;97736.59;;;10.81;35.17
49194;BME280;35029;50.804;12.866;2023-04-07T11:11:00;97732.91;;;10.75;35.52
49194;BME280;35029;50.804;12.866;2023-04-07T11:13:26;97709.81;;;10.62;36.33
49194;BME280;35029;50.804;12.866;2023-04-07T11:15:52;97722.06;;;10.63;37.75
49194;BME280;35029;50.804;12.866;2023-04-07T11:18:21;97728.41;;;10.69;39.13
49194;BME280;35029;50.804;12.866;2023-04-07T11:20:55;97729.72;;;10.87;41.09
49194;BME280;35029;50.804;12.866;2023-04-07T11:23:24;97725.81;;;10.89;39.22
49194;BME280;35029;50.804;12.866;2023-04-07T11:25:54;97729.28;;;10.83;39.12
49194;BME280;35029;50.804;12.866;2023-04-07T11:28:23;97729.28;;;10.83;39.85
49194;BME280;35029;50.804;12.866;2023-04-07T11:30:53;97718.59;;;10.70;38.10
49194;BME280;35029;50.804;12.866;2023-04-07T11:33:25;97731.97;;;10.90;38.73
49194;BME280;35029;50.804;12.866;2023-04-07T11:35:54;97726.03;;;10.94;38.55
49194;BME280;35029;50.804;12.866;2023-04-07T11:38:23;97721.59;;;11.02;38.11
49194;BME280;35029;50.804;12.866;2023-04-07T11:40:49;97725.28;;;11.01;37.18
49194;BME280;35029;50.804;12.866;2023-04-07T11:43:25;97727.53;;;11.10;37.61
49194;BME280;35029;50.804;12.866;2023-04-07T11:48:33;97738.34;;;11.09;37.15
49194;BME280;35029;50.804;12.866;2023-04-07T11:50:59;97737.53;;;11.02;37.30
49194;BME280;35029;50.804;12.866;2023-04-07T11:53:31;97736.91;;;11.06;35.92
49194;BME280;35029;50.804;12.866;2023-04-07T11:56:11;97726.34;;;11.13;36.98
49194;BME280;35029;50.804;12.866;2023-04-07T11:58:52;97736.75;;;11.21;36.17
49194;BME280;35029;50.804;12.866;2023-04-07T12:01:19;97711.81;;;11.02;37.16
49194;BME280;35029;50.804;12.866;2023-04-07T12:03:55;97730.00;;;11.19;39.05
49194;BME280;35029;50.804;12.866;2023-04-07T12:06:34;97735.09;;;11.13;37.73
49194;BME280;35029;50.804;12.866;2023-04-07T12:09:06;97731.41;;;11.08;37.52
49194;BME280;35029;50.804;12.866;2023-04-07T12:11:33;97728.16;;;11.06;39.97
49194;BME280;35029;50.804;12.866;2023-04-07T12:13:59;97723.03;;;11.11;41.51
49194;BME280;35029;50.804;12.866;2023-04-07T12:16:39;97734.28;;;11.13;41.03
49194;BME280;35029;50.804;12.866;2023-04-07T12:19:05;97729.56;;;11.08;41.08
49194;BME280;35029;50.804;12.866;2023-04-07T12:21:31;97739.13;;;11.03;41.65
49194;BME280;35029;50.804;12.866;2023-04-07T12:23:56;97734.03;;;11.01;42.33
49194;BME280;35029;50.804;12.866;2023-04-07T12:26:23;97726.47;;;10.98;41.67
49194;BME280;35029;50.804;12.866;2023-04-07T12:28:49;97716.22;;;10.81;41.28
49194;BME280;35029;50.804;12.866;2023-04-07T12:31:17;97726.44;;;10.91;41.73
49194;BME280;35029;50.804;12.866;2023-04-07T12:33:42;97725.94;;;10.74;41.69
49194;BME280;35029;50.804;12.866;2023-04-07T12:36:08;97729.69;;;10.80;41.60
49194;BME280;35029;50.804;12.866;2023-04-07T12:38:33;97733.78;;;10.82;41.92
49194;BME280;35029;50.804;12.866;2023-04-07T12:40:59;97724.06;;;10.61;41.25
49194;BME280;35029;50.804;12.866;2023-04-07T12:43:30;97716.47;;;10.52;41.21
49194;BME280;35029;50.804;12.866;2023-04-07T12:45:56;97725.72;;;10.62;41.33
49194;BME280;35029;50.804;12.866;2023-04-07T12:48:23;97731.25;;;10.74;39.89
49194;BME280;35029;50.804;12.866;2023-04-07T12:50:51;97731.25;;;10.68;40.28
49194;BME280;35029;50.804;12.866;2023-04-07T12:53:17;97725.66;;;10.97;42.70
49194;BME280;35029;50.804;12.866;2023-04-07T12:55:42;97720.66;;;11.29;42.95
49194;BME280;35029;50.804;12.866;2023-04-07T12:58:08;97726.22;;;11.48;40.53
49194;BME280;35029;50.804;12.866;2023-04-07T13:00:34;97736.56;;;11.23;38.98
49194;BME280;35029;50.804;12.866;2023-04-07T13:03:00;97719.38;;;11.12;39.47
49194;BME280;35029;50.804;12.866;2023-04-07T13:05:25;97731.22;;;11.09;37.64
49194;BME280;35029;50.804;12.866;2023-04-07T13:07:51;97732.25;;;11.22;38.01
49194;BME280;35029;50.804;12.866;2023-04-07T13:10:17;97731.88;;;11.31;38.31
49194;BME280;35029;50.804;12.866;2023-04-07T13:12:43;97730.88;;;11.39;38.84
49194;BME280;35029;50.804;12.866;2023-04-07T13:15:08;97734.75;;;11.37;37.40
49194;BME280;35029;50.804;12.866;2023-04-07T13:17:34;97733.13;;;11.36;38.00